createdAt,value
2023-03-19T00:01:35.653Z,14.80
2023-03-19T00:04:04.815Z,15.10
2023-03-19T00:06:33.113Z,16.10
2023-03-19T00:09:04.225Z,14.70
2023-03-19T00:11:34.347Z,16.80
2023-03-19T00:14:02.599Z,14.70
2023-03-19T00:16:33.104Z,15.40
2023-03-19T00:19:02.452Z,15.30
2023-03-19T00:21:32.458Z,16.90
2023-03-19T00:24:04.082Z,15.70
2023-03-19T00:26:33.410Z,17.50
2023-03-19T00:29:01.916Z,14.60
2023-03-19T00:31:31.296Z,12.50
2023-03-19T00:34:00.009Z,13.70
2023-03-19T00:36:28.996Z,13.90
2023-03-19T00:39:01.077Z,15.00
2023-03-19T00:41:32.495Z,13.70
2023-03-19T00:44:00.919Z,15.90
2023-03-19T00:46:32.398Z,13.90
2023-03-19T00:49:00.645Z,15.70
2023-03-19T00:51:33.433Z,13.80
2023-03-19T00:54:01.845Z,13.90
2023-03-19T00:56:30.836Z,14.60
2023-03-19T00:58:59.806Z,14.30
2023-03-19T01:01:28.207Z,14.90
2023-03-19T01:03:57.031Z,15.20
2023-03-19T01:06:25.514Z,15.30
2023-03-19T01:08:55.060Z,14.40
2023-03-19T01:11:23.337Z,14.00
2023-03-19T01:13:56.416Z,13.10
2023-03-19T01:16:24.885Z,12.00
2023-03-19T01:18:53.685Z,14.80
2023-03-19T01:21:22.212Z,13.50
2023-03-19T01:23:52.159Z,13.30
2023-03-19T01:26:22.321Z,13.90
2023-03-19T01:28:54.017Z,14.80
2023-03-19T01:31:23.289Z,12.90
2023-03-19T01:33:54.963Z,11.90
2023-03-19T01:36:55.568Z,13.50
2023-03-19T01:39:34.354Z,14.00
2023-03-19T01:42:06.959Z,12.90
2023-03-19T01:48:00.439Z,13.70
2023-03-19T01:50:43.577Z,13.90
2023-03-19T01:53:33.335Z,15.90
2023-03-19T01:56:20.307Z,12.50
2023-03-19T01:59:17.049Z,10.60
2023-03-19T02:02:13.500Z,11.80
2023-03-19T02:04:42.609Z,12.70
2023-03-19T02:07:11.401Z,12.20
2023-03-19T02:09:41.317Z,13.30
2023-03-19T02:12:11.047Z,12.40
2023-03-19T02:14:39.825Z,10.20
2023-03-19T02:17:08.705Z,10.20
2023-03-19T02:19:48.542Z,12.80
2023-03-19T02:22:22.684Z,15.10
2023-03-19T02:24:58.524Z,11.10
2023-03-19T02:27:27.027Z,12.30
2023-03-19T02:29:55.285Z,12.40
2023-03-19T02:32:24.485Z,11.40
2023-03-19T02:34:58.713Z,12.00
2023-03-19T02:37:29.631Z,12.20
2023-03-19T02:40:05.739Z,12.80
2023-03-19T02:42:34.343Z,10.30
2023-03-19T02:45:03.812Z,11.10
2023-03-19T02:47:32.205Z,11.50
2023-03-19T02:50:01.292Z,13.30
2023-03-19T02:52:29.865Z,15.60
2023-03-19T02:54:58.295Z,16.40
2023-03-19T02:57:27.375Z,15.00
2023-03-19T03:00:02.943Z,15.80
2023-03-19T03:02:32.211Z,16.60
2023-03-19T03:05:51.270Z,14.00
2023-03-19T03:08:19.584Z,15.30
2023-03-19T03:10:48.384Z,11.80
2023-03-19T03:13:17.390Z,13.80
2023-03-19T03:15:46.513Z,12.40
2023-03-19T03:18:15.406Z,18.40
2023-03-19T03:20:43.686Z,16.40
2023-03-19T03:23:12.271Z,16.10
2023-03-19T03:25:40.808Z,16.00
2023-03-19T03:28:12.469Z,20.00
2023-03-19T03:30:41.843Z,21.10
2023-03-19T03:33:10.249Z,23.20
2023-03-19T03:35:38.944Z,15.70
2023-03-19T03:38:07.908Z,19.50
2023-03-19T03:40:41.955Z,19.30
2023-03-19T03:43:11.533Z,15.60
2023-03-19T03:45:39.942Z,16.30
2023-03-19T03:48:08.636Z,16.00
2023-03-19T03:50:38.162Z,16.10
2023-03-19T03:53:10.674Z,14.00
2023-03-19T03:55:39.683Z,15.40
2023-03-19T03:58:08.144Z,13.80
2023-03-19T04:00:37.216Z,12.80
2023-03-19T04:03:05.620Z,14.20
2023-03-19T04:05:34.361Z,11.40
2023-03-19T04:08:03.758Z,11.40
2023-03-19T04:10:33.683Z,11.70
2023-03-19T04:13:02.624Z,11.10
2023-03-19T04:15:32.117Z,9.80
2023-03-19T04:18:00.508Z,13.00
2023-03-19T04:20:29.289Z,13.80
2023-03-19T04:22:58.302Z,9.80
2023-03-19T04:25:26.796Z,13.10
2023-03-19T04:27:57.648Z,10.50
2023-03-19T04:30:28.380Z,10.60
2023-03-19T04:32:57.549Z,12.30
2023-03-19T04:35:28.503Z,10.60
2023-03-19T04:37:57.070Z,12.50
2023-03-19T04:40:25.429Z,10.40
2023-03-19T04:42:55.046Z,11.90
2023-03-19T04:45:42.144Z,12.40
2023-03-19T04:48:12.968Z,12.10
2023-03-19T04:50:41.793Z,13.20
2023-03-19T04:53:10.973Z,14.00
2023-03-19T04:55:40.086Z,20.90
2023-03-19T04:58:11.898Z,17.70
2023-03-19T05:00:40.750Z,16.70
2023-03-19T05:03:09.486Z,16.50
2023-03-19T05:05:38.820Z,22.20
2023-03-19T05:08:09.565Z,20.20
2023-03-19T05:10:38.701Z,18.00
2023-03-19T05:13:07.689Z,19.30
2023-03-19T05:15:44.383Z,22.80
2023-03-19T05:18:13.180Z,20.60
2023-03-19T05:20:45.740Z,19.10
2023-03-19T05:23:23.123Z,18.00
2023-03-19T05:26:11.944Z,17.60
2023-03-19T05:29:11.188Z,19.70
2023-03-19T05:31:52.938Z,15.70
2023-03-19T05:34:21.445Z,25.30
2023-03-19T05:36:50.282Z,18.40
2023-03-19T05:39:23.074Z,18.90
2023-03-19T05:41:53.087Z,17.80
2023-03-19T05:44:25.006Z,18.90
2023-03-19T05:47:11.682Z,18.00
2023-03-19T05:49:40.940Z,17.10
2023-03-19T05:52:10.272Z,16.70
2023-03-19T05:54:39.656Z,18.80
2023-03-19T05:57:13.765Z,16.60
2023-03-19T05:59:58.938Z,16.30
2023-03-19T06:02:36.902Z,18.80
2023-03-19T06:05:35.542Z,17.70
2023-03-19T06:08:11.015Z,14.90
2023-03-19T06:11:00.342Z,15.90
2023-03-19T06:13:29.263Z,17.30
2023-03-19T06:16:00.321Z,15.70
2023-03-19T06:18:36.801Z,16.70
2023-03-19T06:21:11.237Z,14.40
2023-03-19T06:23:41.986Z,13.80
2023-03-19T06:26:17.580Z,15.10
2023-03-19T06:28:53.503Z,13.30
2023-03-19T06:31:22.722Z,13.10
2023-03-19T06:33:56.565Z,12.40
2023-03-19T06:36:28.441Z,13.80
2023-03-19T06:38:58.824Z,10.80
2023-03-19T06:41:27.748Z,11.40
2023-03-19T06:44:01.637Z,10.40
2023-03-19T06:46:30.752Z,8.90
2023-03-19T06:48:59.081Z,9.90
2023-03-19T06:51:29.127Z,7.90
2023-03-19T06:53:57.457Z,7.70
2023-03-19T06:56:26.280Z,6.60
2023-03-19T06:58:56.822Z,6.20
2023-03-19T07:01:25.363Z,5.40
2023-03-19T07:03:53.929Z,6.30
2023-03-19T07:06:24.326Z,6.40
2023-03-19T07:08:53.219Z,6.50
2023-03-19T07:11:21.731Z,7.60
2023-03-19T07:13:52.241Z,7.10
2023-03-19T07:16:20.924Z,6.50
2023-03-19T07:18:53.782Z,6.50
2023-03-19T07:21:22.578Z,7.80
2023-03-19T07:23:51.149Z,7.50
2023-03-19T07:26:21.301Z,6.60
2023-03-19T07:28:49.611Z,10.90
2023-03-19T07:31:17.946Z,5.80
2023-03-19T07:33:51.595Z,6.00
2023-03-19T07:36:21.488Z,6.50
2023-03-19T07:38:49.952Z,6.70
2023-03-19T07:41:19.838Z,8.10
2023-03-19T07:43:49.195Z,7.00
2023-03-19T07:46:18.397Z,7.10
2023-03-19T07:48:46.929Z,7.40
2023-03-19T07:51:15.869Z,6.00
2023-03-19T07:53:47.043Z,8.70
2023-03-19T07:56:15.298Z,6.70
2023-03-19T07:58:43.828Z,7.50
2023-03-19T08:01:15.791Z,6.70
2023-03-19T08:03:44.514Z,7.40
2023-03-19T08:06:12.784Z,7.10
2023-03-19T08:08:41.317Z,7.00
2023-03-19T08:11:10.187Z,6.40
2023-03-19T08:13:38.594Z,8.20
2023-03-19T08:16:13.681Z,8.90
2023-03-19T08:18:43.908Z,10.00
2023-03-19T08:21:12.534Z,7.30
2023-03-19T08:23:40.971Z,11.50
2023-03-19T08:26:09.393Z,7.20
2023-03-19T08:28:40.855Z,9.70
2023-03-19T08:31:13.432Z,7.60
2023-03-19T08:33:42.075Z,6.00
2023-03-19T08:36:12.489Z,6.30
2023-03-19T08:38:42.088Z,6.50
2023-03-19T08:41:12.934Z,5.80
2023-03-19T08:43:41.208Z,7.50
2023-03-19T08:46:09.852Z,5.60
2023-03-19T08:48:41.379Z,5.80
2023-03-19T08:51:13.130Z,5.70
2023-03-19T08:53:41.598Z,7.30
2023-03-19T08:56:09.796Z,5.80
2023-03-19T08:58:42.985Z,5.60
2023-03-19T09:01:12.976Z,5.60
2023-03-19T09:03:42.773Z,5.90
2023-03-19T09:06:12.419Z,5.30
2023-03-19T09:08:58.349Z,5.40
2023-03-19T09:11:28.192Z,6.10
2023-03-19T09:13:58.122Z,5.60
2023-03-19T09:16:26.848Z,5.10
2023-03-19T09:18:59.314Z,5.10
2023-03-19T09:21:29.140Z,4.30
2023-03-19T09:23:57.542Z,4.10
2023-03-19T09:26:26.013Z,4.00
2023-03-19T09:28:54.944Z,3.90
2023-03-19T09:31:29.925Z,4.80
2023-03-19T09:33:58.442Z,3.30
2023-03-19T09:36:26.862Z,3.40
2023-03-19T09:38:56.315Z,3.00
2023-03-19T09:41:40.254Z,3.50
2023-03-19T09:44:16.949Z,3.40
2023-03-19T09:46:47.082Z,3.50
2023-03-19T09:49:30.225Z,3.00
2023-03-19T09:52:19.957Z,3.70
2023-03-19T09:54:52.587Z,5.40
2023-03-19T09:57:22.958Z,2.90
2023-03-19T09:59:53.352Z,3.10
2023-03-19T10:02:27.670Z,2.80
2023-03-19T10:04:59.486Z,2.30
2023-03-19T10:07:33.142Z,2.30
2023-03-19T10:10:23.454Z,3.30
2023-03-19T10:13:04.889Z,2.60
2023-03-19T10:15:34.168Z,2.90
2023-03-19T10:18:13.722Z,2.60
2023-03-19T10:20:48.593Z,2.70
2023-03-19T10:23:29.422Z,2.90
2023-03-19T10:25:59.002Z,2.80
2023-03-19T10:28:29.976Z,2.80
2023-03-19T10:31:28.729Z,2.70
2023-03-19T10:34:12.514Z,2.60
2023-03-19T10:36:41.358Z,2.90
2023-03-19T10:39:09.829Z,3.20
2023-03-19T10:41:47.453Z,3.60
2023-03-19T10:44:29.379Z,3.80
2023-03-19T10:47:00.144Z,3.00
2023-03-19T10:49:28.470Z,3.40
2023-03-19T10:51:57.749Z,3.40
2023-03-19T10:54:27.239Z,3.70
2023-03-19T10:56:57.310Z,4.20
2023-03-19T10:59:31.913Z,2.70
2023-03-19T11:02:20.716Z,3.20
2023-03-19T11:04:49.922Z,2.70
2023-03-19T11:07:19.979Z,2.40
2023-03-19T11:09:50.056Z,3.00
2023-03-19T11:12:25.651Z,2.90
2023-03-19T11:14:54.977Z,3.00
2023-03-19T11:17:36.676Z,2.30
2023-03-19T11:20:22.183Z,2.70
2023-03-19T11:22:52.761Z,3.40
2023-03-19T11:25:27.248Z,3.40
2023-03-19T11:28:01.708Z,3.40
2023-03-19T11:30:39.690Z,3.30
2023-03-19T11:33:38.560Z,3.90
2023-03-19T11:36:19.369Z,3.40
2023-03-19T11:38:58.708Z,3.80
2023-03-19T11:41:33.173Z,3.50
2023-03-19T11:44:17.843Z,3.80
2023-03-19T11:47:26.185Z,3.20
2023-03-19T11:49:57.936Z,3.10
2023-03-19T11:52:41.561Z,3.20
2023-03-19T11:55:25.143Z,4.80
2023-03-19T11:58:35.742Z,2.90
2023-03-19T12:01:13.929Z,3.90
2023-03-19T12:03:51.479Z,3.90
2023-03-19T12:06:31.374Z,3.00
2023-03-19T12:09:05.821Z,3.20
2023-03-19T12:11:42.608Z,2.90
2023-03-19T12:14:22.203Z,3.10
2023-03-19T12:16:55.630Z,2.90
2023-03-19T12:19:43.251Z,3.30
2023-03-19T12:22:43.096Z,6.40
2023-03-19T12:25:32.318Z,3.90
2023-03-19T12:28:04.696Z,4.00
2023-03-19T12:30:50.522Z,3.50
2023-03-19T12:33:24.923Z,4.00
2023-03-19T12:35:56.511Z,3.00
2023-03-19T12:38:37.045Z,5.00
2023-03-19T12:41:32.772Z,2.60
2023-03-19T12:44:26.140Z,4.40
2023-03-19T12:47:06.727Z,3.10
2023-03-19T12:49:39.949Z,3.20
2023-03-19T12:52:17.652Z,3.00
2023-03-19T12:54:55.628Z,6.10
2023-03-19T12:57:44.565Z,2.70
2023-03-19T13:00:49.386Z,2.50
2023-03-19T13:03:29.199Z,3.10
2023-03-19T13:06:11.151Z,2.70
2023-03-19T13:08:56.048Z,3.00
2023-03-19T13:11:46.749Z,3.00
2023-03-19T13:14:38.824Z,3.70
2023-03-19T13:17:15.496Z,3.20
2023-03-19T13:19:51.296Z,3.20
2023-03-19T13:22:28.069Z,2.60
2023-03-19T13:24:56.994Z,3.00
2023-03-19T13:27:31.613Z,3.70
2023-03-19T13:30:09.602Z,3.60
2023-03-19T13:32:48.289Z,3.10
2023-03-19T13:35:40.792Z,3.10
2023-03-19T13:38:21.749Z,3.70
2023-03-19T13:40:52.995Z,3.80
2023-03-19T13:43:30.611Z,4.00
2023-03-19T13:46:12.420Z,3.60
2023-03-19T13:48:50.436Z,3.50
2023-03-19T13:51:27.255Z,6.60
2023-03-19T13:54:12.965Z,3.00
2023-03-19T13:57:03.609Z,3.30
2023-03-19T13:59:33.168Z,3.10
2023-03-19T14:02:02.599Z,3.40
2023-03-19T14:04:36.900Z,3.80
2023-03-19T14:07:27.937Z,2.90
2023-03-19T14:09:57.769Z,3.10
2023-03-19T14:12:37.298Z,4.30
2023-03-19T14:15:09.485Z,2.90
2023-03-19T14:17:48.389Z,3.30
2023-03-19T14:20:32.864Z,3.20
2023-03-19T14:23:09.103Z,3.10
2023-03-19T14:26:06.740Z,6.80
2023-03-19T14:28:44.926Z,3.10
2023-03-19T14:31:55.963Z,3.50
2023-03-19T14:34:39.930Z,3.30
2023-03-19T14:37:23.178Z,3.20
2023-03-19T14:40:00.752Z,3.40
2023-03-19T14:42:36.051Z,3.00
2023-03-19T14:45:14.624Z,3.10
2023-03-19T14:48:14.548Z,3.50
2023-03-19T14:51:07.979Z,5.20
2023-03-19T14:54:01.342Z,2.80
2023-03-19T14:56:34.146Z,3.70
2023-03-19T14:59:07.869Z,3.80
2023-03-19T15:01:41.314Z,3.90
2023-03-19T15:04:10.925Z,3.90
2023-03-19T15:06:53.124Z,4.80
2023-03-19T15:09:41.159Z,3.30
2023-03-19T15:12:33.955Z,4.20
2023-03-19T15:15:21.462Z,5.00
2023-03-19T15:18:04.198Z,5.60
2023-03-19T15:22:13.289Z,5.10
2023-03-19T15:24:43.333Z,3.60
2023-03-19T15:27:25.638Z,5.70
2023-03-19T15:30:02.516Z,3.40
2023-03-19T15:33:09.194Z,4.90
2023-03-19T15:35:38.013Z,4.80
2023-03-19T15:38:09.471Z,5.50
2023-03-19T15:40:37.830Z,3.80
2023-03-19T15:43:09.904Z,4.70
2023-03-19T15:45:39.255Z,5.10
2023-03-19T15:48:14.100Z,3.60
2023-03-19T15:50:44.817Z,4.40
2023-03-19T15:53:24.948Z,4.90
2023-03-19T15:55:53.431Z,7.00
2023-03-19T15:58:26.044Z,5.50
2023-03-19T16:00:54.726Z,5.30
2023-03-19T16:03:30.660Z,5.80
2023-03-19T16:06:01.858Z,5.60
2023-03-19T16:08:34.386Z,7.90
2023-03-19T16:11:26.526Z,7.50
2023-03-19T16:13:57.278Z,5.40
2023-03-19T16:16:31.583Z,5.50
2023-03-19T16:19:01.454Z,5.50
2023-03-19T16:21:40.902Z,5.60
2023-03-19T16:24:28.273Z,5.90
2023-03-19T16:29:34.839Z,3.90
2023-03-19T16:32:24.811Z,5.50
2023-03-19T16:34:54.687Z,5.30
2023-03-19T16:37:30.485Z,8.50
2023-03-19T16:40:04.670Z,6.40
2023-03-19T16:42:40.609Z,6.90
2023-03-19T16:45:18.950Z,6.40
2023-03-19T16:47:58.047Z,8.00
2023-03-19T16:50:37.277Z,7.60
2023-03-19T16:53:23.416Z,7.50
2023-03-19T16:55:53.411Z,8.40
2023-03-19T16:58:38.188Z,8.40
2023-03-19T17:01:14.198Z,10.10
2023-03-19T17:03:44.921Z,10.90
2023-03-19T17:06:13.711Z,8.90
2023-03-19T17:08:44.434Z,8.40
2023-03-19T17:11:25.286Z,9.60
2023-03-19T17:13:56.567Z,9.10
2023-03-19T17:16:26.130Z,7.80
2023-03-19T17:18:54.635Z,9.40
2023-03-19T17:21:33.656Z,10.30
2023-03-19T17:24:16.792Z,12.10
2023-03-19T17:26:45.524Z,8.80
2023-03-19T17:29:13.848Z,9.00
2023-03-19T17:31:42.502Z,7.40
2023-03-19T17:34:17.365Z,8.90
2023-03-19T17:36:56.208Z,8.70
2023-03-19T17:39:25.305Z,9.00
2023-03-19T17:41:54.276Z,8.70
2023-03-19T17:44:22.749Z,9.40
2023-03-19T17:46:53.328Z,11.00
2023-03-19T17:49:27.812Z,12.20
2023-03-19T17:51:56.383Z,10.90
2023-03-19T17:54:27.357Z,10.20
2023-03-19T17:56:56.113Z,11.30
2023-03-19T17:59:24.464Z,10.30
2023-03-19T18:01:53.031Z,9.80
2023-03-19T18:04:22.670Z,10.60
2023-03-19T18:06:54.311Z,10.60
2023-03-19T18:09:28.642Z,9.50
2023-03-19T18:11:56.926Z,10.00
2023-03-19T18:14:25.383Z,8.50
2023-03-19T18:16:55.492Z,9.50
2023-03-19T18:19:35.405Z,7.90
2023-03-19T18:22:12.491Z,9.70
2023-03-19T18:24:41.150Z,8.90
2023-03-19T18:27:09.765Z,16.80
2023-03-19T18:29:39.749Z,20.60
2023-03-19T18:32:13.347Z,19.60
2023-03-19T18:34:41.948Z,16.10
2023-03-19T18:37:15.500Z,13.80
2023-03-19T18:39:44.645Z,11.60
2023-03-19T18:42:16.844Z,11.30
2023-03-19T18:44:46.018Z,15.30
2023-03-19T18:47:15.817Z,16.10
2023-03-19T18:49:48.748Z,15.70
2023-03-19T18:52:19.617Z,20.80
2023-03-19T18:54:48.477Z,22.20
2023-03-19T18:57:16.831Z,22.20
2023-03-19T18:59:45.738Z,23.70
2023-03-19T19:02:30.683Z,26.50
2023-03-19T19:04:59.408Z,26.00
2023-03-19T19:07:27.946Z,26.30
2023-03-19T19:09:57.599Z,28.70
2023-03-19T19:12:26.585Z,31.60
2023-03-19T19:14:55.027Z,28.40
2023-03-19T19:17:24.839Z,31.30
2023-03-19T19:19:54.561Z,27.90
2023-03-19T19:22:22.834Z,29.20
2023-03-19T19:24:51.807Z,33.70
2023-03-19T19:27:22.617Z,28.90
2023-03-19T19:29:51.409Z,30.50
2023-03-19T19:32:25.106Z,31.60
2023-03-19T19:34:53.453Z,30.10
2023-03-19T19:37:23.652Z,28.00
2023-03-19T19:39:52.307Z,26.80
2023-03-19T19:42:21.618Z,26.90
2023-03-19T19:44:55.833Z,28.50
2023-03-19T19:47:24.621Z,26.10
2023-03-19T19:49:58.583Z,26.10
2023-03-19T19:52:29.140Z,27.00
2023-03-19T19:54:58.679Z,24.50
2023-03-19T19:57:27.549Z,23.10
2023-03-19T19:59:56.508Z,21.50
2023-03-19T20:02:26.991Z,23.10
2023-03-19T20:04:57.756Z,22.10
2023-03-19T20:07:27.377Z,20.80
2023-03-19T20:09:56.265Z,20.90
2023-03-19T20:12:33.180Z,21.50
2023-03-19T20:15:01.586Z,21.80
2023-03-19T20:17:31.640Z,19.80
2023-03-19T20:19:59.861Z,20.80
2023-03-19T20:22:37.236Z,21.80
2023-03-19T20:25:07.271Z,20.10
2023-03-19T20:27:35.969Z,18.40
2023-03-19T20:30:05.688Z,22.00
2023-03-19T20:32:35.732Z,21.70
2023-03-19T20:35:20.814Z,21.70
2023-03-19T20:37:53.960Z,23.10
2023-03-19T20:40:38.430Z,21.70
2023-03-19T20:43:07.876Z,20.30
2023-03-19T20:45:37.880Z,23.90
2023-03-19T20:48:11.423Z,19.90
2023-03-19T20:50:39.890Z,20.50
2023-03-19T20:53:08.775Z,20.20
2023-03-19T20:55:38.685Z,19.90
2023-03-19T20:58:27.775Z,20.80
2023-03-19T21:00:58.077Z,21.50
2023-03-19T21:03:30.517Z,19.40
2023-03-19T21:06:02.179Z,21.30
2023-03-19T21:08:32.547Z,22.30
2023-03-19T21:11:01.379Z,24.10
2023-03-19T21:13:30.149Z,22.20
2023-03-19T21:15:59.864Z,22.50
2023-03-19T21:18:28.254Z,21.30
2023-03-19T21:20:59.948Z,25.50
2023-03-19T21:23:34.894Z,21.70
2023-03-19T21:26:18.232Z,24.30
2023-03-19T21:28:48.676Z,22.20
2023-03-19T21:31:19.229Z,22.00
2023-03-19T21:33:48.927Z,27.40
2023-03-19T21:36:17.623Z,23.00
2023-03-19T21:38:46.740Z,21.80
2023-03-19T21:41:37.424Z,20.40
2023-03-19T21:44:07.751Z,21.90
2023-03-19T21:46:36.935Z,21.90
2023-03-19T21:49:07.689Z,22.20
2023-03-19T21:51:38.099Z,22.20
2023-03-19T21:54:06.382Z,22.20
2023-03-19T21:56:40.112Z,23.40
2023-03-19T21:59:13.946Z,20.40
2023-03-19T22:01:42.550Z,21.20
2023-03-19T22:04:10.981Z,20.90
2023-03-19T22:06:40.471Z,21.60
2023-03-19T22:09:10.803Z,23.50
2023-03-19T22:11:41.862Z,20.60
2023-03-19T22:14:10.988Z,23.20
2023-03-19T22:16:41.354Z,19.20
2023-03-19T22:19:14.867Z,20.00
2023-03-19T22:21:43.185Z,23.30
2023-03-19T22:24:12.526Z,19.90
2023-03-19T22:26:43.990Z,20.40
2023-03-19T22:29:20.965Z,18.90
2023-03-19T22:31:50.158Z,20.00
2023-03-19T22:34:20.252Z,18.70
2023-03-19T22:36:50.729Z,16.60
2023-03-19T22:39:19.478Z,18.40
2023-03-19T22:41:48.105Z,19.80
2023-03-19T22:44:23.712Z,20.80
2023-03-19T22:46:52.784Z,20.60
2023-03-19T22:49:21.374Z,19.10
2023-03-19T22:51:49.737Z,21.40
2023-03-19T22:54:17.951Z,22.40
2023-03-19T22:56:46.292Z,19.10
2023-03-19T22:59:14.705Z,22.00
2023-03-19T23:01:44.433Z,22.30
2023-03-19T23:04:22.563Z,21.60
2023-03-19T23:06:52.729Z,20.40
2023-03-19T23:09:24.715Z,22.80
2023-03-19T23:11:53.825Z,25.40
2023-03-19T23:14:30.011Z,21.60
2023-03-19T23:17:02.074Z,20.10
2023-03-19T23:19:37.473Z,23.00
2023-03-19T23:22:06.637Z,21.70
2023-03-19T23:24:35.319Z,25.40
2023-03-19T23:27:04.664Z,24.60
2023-03-19T23:29:36.942Z,24.20
2023-03-19T23:32:06.093Z,23.20
2023-03-19T23:34:42.319Z,23.50
2023-03-19T23:37:11.068Z,23.50
2023-03-19T23:39:41.317Z,26.20
2023-03-19T23:42:10.150Z,26.80
2023-03-19T23:44:43.924Z,25.70
2023-03-19T23:47:19.583Z,23.20
2023-03-19T23:49:47.964Z,21.70
2023-03-19T23:52:16.245Z,26.80
2023-03-19T23:54:46.766Z,25.30
2023-03-19T23:57:17.532Z,26.40
2023-03-19T23:59:46.445Z,25.80
